Time;durP1;ratioP1;P1;durP2;ratioP2;P2;SDS_P1;SDS_P2;PMS_P1;PMS_P2;Temp;Humidity;BMP_temperature;BMP_pressure;BME280_temperature;BME280_humidity;BME280_pressure;Samples;Min_cycle;Max_cycle;Signal;HPM_P1;HPM_P2
2022/02/14 00:01:12;;;;;;;20.63;10.70;;;;;;;;;;6318269;28;20169;-74
2022/02/14 00:04:20;;;;;;;22.17;10.77;;;;;;;;;;6320088;28;20100;-75
2022/02/14 00:07:24;;;;;;;18.92;9.77;;;;;;;;;;6318744;28;20040;-74
2022/02/14 00:10:27;;;;;;;21.23;10.18;;;;;;;;;;6316865;28;20394;-73
2022/02/14 00:13:31;;;;;;;23.95;10.30;;;;;;;;;;6320072;28;20075;-73
2022/02/14 00:16:37;;;;;;;21.52;11.20;;;;;;;;;;6318257;28;20056;-77
2022/02/14 00:19:49;;;;;;;18.58;10.40;;;;;;;;;;6318841;28;20051;-76
2022/02/14 00:22:53;;;;;;;24.27;11.65;;;;;;;;;;6317960;28;20059;-75
2022/02/14 00:25:58;;;;;;;20.00;11.05;;;;;;;;;;6317731;28;20512;-74
2022/02/14 00:29:01;;;;;;;19.42;9.88;;;;;;;;;;6318077;28;20093;-75
2022/02/14 00:32:04;;;;;;;21.65;10.32;;;;;;;;;;6318549;28;20401;-75
2022/02/14 00:35:13;;;;;;;22.48;10.65;;;;;;;;;;6318065;28;20058;-75
2022/02/14 00:38:16;;;;;;;;;;;;;;;;;;6319453;28;20093;-75
2022/02/14 00:41:19;;;;;;;20.63;10.40;;;;;;;;;;6318167;28;19924;-76
2022/02/14 00:44:27;;;;;;;18.60;10.35;;;;;;;;;;6318154;28;20055;-76
2022/02/14 00:47:32;;;;;;;20.38;9.85;;;;;;;;;;6317183;28;20044;-76
2022/02/14 00:50:39;;;;;;;19.20;9.95;;;;;;;;;;6317900;28;20122;-75
2022/02/14 00:53:42;;;;;;;19.83;11.35;;;;;;;;;;6317859;28;20460;-75
2022/02/14 00:56:45;;;;;;;19.90;9.85;;;;;;;;;;6318591;28;20046;-75
2022/02/14 00:59:50;;;;;;;20.20;10.63;;;;;;;;;;6317396;28;20044;-75
2022/02/14 01:02:53;;;;;;;20.58;10.85;;;;;;;;;;6317683;28;20576;-75
2022/02/14 01:05:58;;;;;;;25.05;10.77;;;;;;;;;;6317263;28;20402;-75
2022/02/14 01:09:04;;;;;;;19.17;9.70;;;;;;;;;;6316973;28;20046;-74
2022/02/14 01:12:08;;;;;;;20.35;10.35;;;;;;;;;;6317936;28;20048;-75
2022/02/14 01:15:12;;;;;;;22.40;10.77;;;;;;;;;;6316673;28;20052;-75
2022/02/14 01:18:15;;;;;;;20.05;9.32;;;;;;;;;;6316720;28;20044;-75
2022/02/14 01:21:19;;;;;;;22.83;11.35;;;;;;;;;;6318052;28;20051;-75
2022/02/14 01:24:22;;;;;;;20.42;10.55;;;;;;;;;;6315744;28;20050;-76
2022/02/14 01:27:28;;;;;;;22.60;10.13;;;;;;;;;;6317051;28;20482;-76
2022/02/14 01:30:33;;;;;;;20.02;10.73;;;;;;;;;;6316374;28;20054;-76
2022/02/14 01:33:36;;;;;;;19.70;10.25;;;;;;;;;;6313602;28;20127;-76
2022/02/14 01:36:40;;;;;;;18.00;10.52;;;;;;;;;;6313559;28;20066;-76
2022/02/14 01:39:43;;;;;;;19.65;10.00;;;;;;;;;;6314962;28;20051;-75
2022/02/14 01:42:49;;;;;;;20.33;10.45;;;;;;;;;;6314371;28;20052;-75
2022/02/14 01:45:52;;;;;;;21.38;10.13;;;;;;;;;;6315288;28;20161;-75
2022/02/14 01:48:55;;;;;;;22.38;10.40;;;;;;;;;;6316285;28;20059;-76
2022/02/14 01:52:01;;;;;;;20.40;10.02;;;;;;;;;;6315987;28;20040;-75
2022/02/14 01:55:05;;;;;;;19.40;10.98;;;;;;;;;;6315262;28;20375;-75
2022/02/14 01:58:11;;;;;;;20.60;10.40;;;;;;;;;;6316244;28;20051;-75
2022/02/14 02:01:16;;;;;;;20.15;10.40;;;;;;;;;;6313795;28;20055;-74
2022/02/14 02:04:21;;;;;;;19.25;9.68;;;;;;;;;;6314232;28;20054;-75
2022/02/14 02:07:28;;;;;;;20.10;11.02;;;;;;;;;;6312747;28;20410;-75
2022/02/14 02:10:31;;;;;;;18.13;9.38;;;;;;;;;;6314535;28;20044;-74
2022/02/14 02:13:35;;;;;;;20.88;10.25;;;;;;;;;;6312835;28;20059;-75
2022/02/14 02:16:39;;;;;;;21.27;10.13;;;;;;;;;;6314122;28;20054;-74
2022/02/14 02:19:43;;;;;;;19.67;10.35;;;;;;;;;;6317261;28;20048;-74
2022/02/14 02:22:49;;;;;;;18.30;10.43;;;;;;;;;;6316840;28;20048;-73
2022/02/14 02:25:54;;;;;;;19.25;10.43;;;;;;;;;;6316653;28;20050;-74
2022/02/14 02:28:57;;;;;;;21.00;10.95;;;;;;;;;;6315403;28;20090;-75
2022/02/14 02:32:00;;;;;;;18.70;9.70;;;;;;;;;;6317431;28;20448;-76
2022/02/14 02:35:04;;;;;;;23.88;10.57;;;;;;;;;;6322090;28;20056;-75
2022/02/14 02:38:08;;;;;;;20.55;9.68;;;;;;;;;;6321010;28;20040;-76
2022/02/14 02:41:12;;;;;;;18.80;9.73;;;;;;;;;;6320871;28;20417;-75
2022/02/14 02:44:16;;;;;;;19.00;10.23;;;;;;;;;;6320367;28;20482;-75
2022/02/14 02:47:23;;;;;;;20.63;10.70;;;;;;;;;;6320212;28;20048;-75
2022/02/14 02:50:26;;;;;;;18.92;10.02;;;;;;;;;;6321528;28;20048;-76
2022/02/14 02:53:32;;;;;;;20.95;10.23;;;;;;;;;;6321893;28;20048;-76
2022/02/14 02:56:39;;;;;;;20.02;11.18;;;;;;;;;;6320228;28;20040;-76
2022/02/14 02:59:43;;;;;;;21.70;10.83;;;;;;;;;;6320992;28;20052;-76
2022/02/14 03:02:46;;;;;;;23.15;10.82;;;;;;;;;;6321285;28;20412;-76
2022/02/14 03:05:52;;;;;;;20.07;10.43;;;;;;;;;;6321178;28;20578;-76
2022/02/14 03:08:57;;;;;;;24.47;10.67;;;;;;;;;;6319137;28;20350;-76
2022/02/14 03:12:02;;;;;;;22.60;10.18;;;;;;;;;;6320130;28;20051;-75
2022/02/14 03:15:06;;;;;;;21.95;10.82;;;;;;;;;;6320766;28;20040;-74
2022/02/14 03:18:11;;;;;;;20.30;11.27;;;;;;;;;;6319749;28;20040;-74
2022/02/14 03:21:15;;;;;;;23.67;11.48;;;;;;;;;;6319239;28;20044;-76
2022/02/14 03:24:18;;;;;;;18.98;10.98;;;;;;;;;;6319506;28;20289;-75
2022/02/14 03:27:23;;;;;;;19.40;10.32;;;;;;;;;;6320833;28;20055;-74
2022/02/14 03:30:25;;;;;;;20.38;10.02;;;;;;;;;;6319789;28;20048;-74
2022/02/14 03:33:29;;;;;;;18.05;9.80;;;;;;;;;;6319746;28;20040;-75
2022/02/14 03:36:32;;;;;;;22.10;11.25;;;;;;;;;;6318989;28;20502;-75
2022/02/14 03:39:36;;;;;;;21.75;11.35;;;;;;;;;;6318035;28;20051;-75
2022/02/14 03:42:41;;;;;;;19.48;10.65;;;;;;;;;;6317662;28;20141;-76
2022/02/14 03:45:44;;;;;;;21.17;11.00;;;;;;;;;;6319748;28;20043;-76
2022/02/14 03:48:47;;;;;;;21.23;10.68;;;;;;;;;;6320185;28;20189;-76
2022/02/14 03:51:50;;;;;;;21.60;11.07;;;;;;;;;;6318132;28;20044;-77
2022/02/14 03:54:56;;;;;;;26.27;11.77;;;;;;;;;;6318862;28;20051;-76
2022/02/14 03:58:01;;;;;;;27.42;12.70;;;;;;;;;;6318514;28;20534;-76
2022/02/14 04:01:04;;;;;;;21.73;11.02;;;;;;;;;;6315241;28;20052;-76
2022/02/14 04:04:07;;;;;;;24.50;11.55;;;;;;;;;;6317777;28;20553;-76
2022/02/14 04:07:10;;;;;;;24.88;11.93;;;;;;;;;;6318101;28;20048;-75
2022/02/14 04:10:14;;;;;;;25.02;10.98;;;;;;;;;;6317902;28;20059;-75
2022/02/14 04:13:18;;;;;;;22.95;10.10;;;;;;;;;;6318493;28;20044;-76
2022/02/14 04:16:22;;;;;;;22.33;11.73;;;;;;;;;;6319871;28;20062;-77
2022/02/14 04:19:27;;;;;;;23.95;11.27;;;;;;;;;;6319478;28;20043;-76
2022/02/14 04:22:31;;;;;;;23.90;11.38;;;;;;;;;;6318421;28;20093;-76
2022/02/14 04:25:35;;;;;;;24.38;12.18;;;;;;;;;;6319477;28;20040;-77
2022/02/14 04:28:42;;;;;;;24.23;12.55;;;;;;;;;;6317633;28;20410;-77
2022/02/14 04:31:45;;;;;;;25.10;11.68;;;;;;;;;;6317254;28;20498;-76
2022/02/14 04:34:51;;;;;;;;;;;;;;;;;;6318171;28;20058;-76
2022/02/14 04:37:59;;;;;;;22.55;11.40;;;;;;;;;;6317547;28;20454;-77
2022/02/14 04:41:02;;;;;;;28.90;11.65;;;;;;;;;;6317483;28;20464;-77
2022/02/14 04:44:09;;;;;;;29.23;12.50;;;;;;;;;;6316601;28;20508;-76
2022/02/14 04:47:12;;;;;;;23.80;12.50;;;;;;;;;;6317465;28;20055;-76
2022/02/14 04:50:15;;;;;;;26.02;12.43;;;;;;;;;;6317136;28;20445;-76
2022/02/14 04:53:18;;;;;;;23.20;11.75;;;;;;;;;;6317895;28;20101;-76
2022/02/14 04:56:24;;;;;;;23.77;11.30;;;;;;;;;;6317167;28;20048;-77
2022/02/14 04:59:29;;;;;;;26.98;12.43;;;;;;;;;;6317871;28;20048;-77
2022/02/14 05:02:35;;;;;;;26.23;12.25;;;;;;;;;;6317114;28;20405;-78
2022/02/14 05:05:38;;;;;;;21.33;10.60;;;;;;;;;;6315926;28;20410;-76
2022/02/14 05:08:41;;;;;;;27.15;12.15;;;;;;;;;;6318250;28;20074;-77
2022/02/14 05:11:45;;;;;;;26.88;12.70;;;;;;;;;;6317971;28;20048;-76
2022/02/14 05:14:52;;;;;;;24.25;11.93;;;;;;;;;;6317112;28;20160;-76
2022/02/14 05:17:55;;;;;;;25.23;12.40;;;;;;;;;;6317156;28;20040;-76
2022/02/14 05:21:01;;;;;;;25.65;12.63;;;;;;;;;;6316097;28;20530;-77
2022/02/14 05:24:04;;;;;;;28.27;12.70;;;;;;;;;;6317484;28;20410;-76
2022/02/14 05:27:07;;;;;;;29.65;12.93;;;;;;;;;;6315912;28;20048;-77
2022/02/14 05:30:12;;;;;;;29.00;12.57;;;;;;;;;;6316246;28;20043;-78
2022/02/14 05:33:16;;;;;;;28.17;13.25;;;;;;;;;;6317991;28;20032;-76
2022/02/14 05:36:22;;;;;;;28.65;13.90;;;;;;;;;;6315325;28;20048;-77
2022/02/14 05:39:25;;;;;;;27.38;13.55;;;;;;;;;;6316459;28;20199;-77
2022/02/14 05:42:28;;;;;;;25.95;13.65;;;;;;;;;;6315933;28;20410;-78
2022/02/14 05:45:34;;;;;;;27.23;13.23;;;;;;;;;;6316768;28;20116;-77
2022/02/14 05:48:37;;;;;;;25.50;13.75;;;;;;;;;;6317145;28;20059;-78
2022/02/14 05:51:40;;;;;;;29.88;13.40;;;;;;;;;;6317161;28;20044;-77
2022/02/14 05:54:43;;;;;;;26.02;13.45;;;;;;;;;;6316922;28;20043;-78
2022/02/14 05:57:46;;;;;;;28.45;13.88;;;;;;;;;;6315207;28;20048;-77
2022/02/14 06:00:52;;;;;;;25.27;13.00;;;;;;;;;;6316079;28;20044;-76
2022/02/14 06:03:55;;;;;;;28.77;13.47;;;;;;;;;;6315661;28;20134;-77
2022/02/14 06:06:58;;;;;;;29.10;13.80;;;;;;;;;;6315452;28;20603;-76
2022/02/14 06:10:06;;;;;;;29.05;14.30;;;;;;;;;;6316145;28;20043;-77
2022/02/14 06:13:10;;;;;;;29.85;14.13;;;;;;;;;;6316320;28;20368;-77
2022/02/14 06:16:14;;;;;;;52.88;24.88;;;;;;;;;;6316177;28;20040;-78
2022/02/14 06:19:17;;;;;;;31.92;14.73;;;;;;;;;;6315081;28;20044;-77
2022/02/14 06:22:21;;;;;;;27.02;13.52;;;;;;;;;;6315113;28;20512;-78
2022/02/14 06:25:25;;;;;;;36.63;13.50;;;;;;;;;;6316231;28;20056;-76
2022/02/14 06:28:28;;;;;;;30.67;14.35;;;;;;;;;;6311427;28;20046;-76
2022/02/14 06:31:35;;;;;;;31.08;14.45;;;;;;;;;;6312841;28;20052;-76
2022/02/14 06:34:38;;;;;;;32.10;15.48;;;;;;;;;;6313482;28;20047;-76
2022/02/14 06:37:43;;;;;;;32.40;15.90;;;;;;;;;;6294890;28;20704;-76
2022/02/14 06:40:46;;;;;;;25.40;13.15;;;;;;;;;;6312830;28;20627;-76
2022/02/14 06:43:50;;;;;;;30.33;13.77;;;;;;;;;;6315278;28;20044;-75
2022/02/14 06:46:55;;;;;;;32.50;14.80;;;;;;;;;;6314844;28;20044;-76
2022/02/14 06:49:58;;;;;;;29.77;15.77;;;;;;;;;;6315693;28;20410;-76
2022/02/14 06:53:03;;;;;;;34.75;15.68;;;;;;;;;;6316701;28;20036;-76
2022/02/14 06:56:06;;;;;;;32.35;15.38;;;;;;;;;;6315866;28;20513;-75
2022/02/14 06:59:10;;;;;;;33.00;15.27;;;;;;;;;;6314312;28;20151;-76
2022/02/14 07:02:19;;;;;;;32.28;15.98;;;;;;;;;;6316315;28;20093;-76
2022/02/14 07:05:24;;;;;;;31.45;14.82;;;;;;;;;;6315919;28;20048;-76
2022/02/14 07:08:28;;;;;;;34.75;16.23;;;;;;;;;;6315869;28;20071;-76
2022/02/14 07:11:31;;;;;;;32.28;15.75;;;;;;;;;;6314476;28;20043;-76
2022/02/14 07:14:34;;;;;;;33.40;16.75;;;;;;;;;;6316184;28;20475;-75
2022/02/14 07:17:39;;;;;;;33.85;17.10;;;;;;;;;;6316277;28;20048;-76
2022/02/14 07:20:42;;;;;;;34.25;16.63;;;;;;;;;;6285664;28;20040;-76
2022/02/14 07:23:45;;;;;;;37.90;17.85;;;;;;;;;;6321160;28;20044;-75
2022/02/14 07:26:48;;;;;;;34.25;17.05;;;;;;;;;;6320051;28;20085;-76
2022/02/14 07:29:51;;;;;;;35.78;17.88;;;;;;;;;;6318827;28;20505;-76
2022/02/14 07:32:56;;;;;;;38.67;18.17;;;;;;;;;;6320485;28;20044;-76
2022/02/14 07:36:03;;;;;;;32.25;17.58;;;;;;;;;;6319108;28;20142;-75
2022/02/14 07:39:06;;;;;;;32.10;17.70;;;;;;;;;;6319218;28;20040;-78
2022/02/14 07:42:12;;;;;;;35.65;18.58;;;;;;;;;;6318390;28;20043;-76
2022/02/14 07:45:15;;;;;;;37.63;18.38;;;;;;;;;;6321191;28;20430;-78
2022/02/14 07:48:22;;;;;;;38.03;19.15;;;;;;;;;;6318606;28;20052;-76
2022/02/14 07:51:27;;;;;;;32.13;17.65;;;;;;;;;;6318278;28;20036;-76
2022/02/14 07:54:31;;;;;;;35.40;16.50;;;;;;;;;;6320176;28;20043;-75
2022/02/14 07:57:34;;;;;;;34.10;17.60;;;;;;;;;;6319714;28;20708;-76
2022/02/14 08:00:41;;;;;;;35.13;18.65;;;;;;;;;;6318516;28;20406;-77
2022/02/14 08:03:47;;;;;;;39.38;18.63;;;;;;;;;;6301511;28;20052;-76
2022/02/14 08:07:06;;;;;;;35.17;18.08;;;;;;;;;;6318442;28;20052;-77
2022/02/14 08:10:10;;;;;;;35.83;18.73;;;;;;;;;;6318038;28;20513;-77
2022/02/14 08:13:17;;;;;;;36.25;18.38;;;;;;;;;;6317575;28;20074;-76
2022/02/14 08:16:20;;;;;;;36.53;19.70;;;;;;;;;;6317667;28;20044;-76
2022/02/14 08:19:25;;;;;;;36.50;19.35;;;;;;;;;;6317783;28;20135;-76
2022/02/14 08:22:29;;;;;;;;;;;;;;;;;;6320017;28;20404;-76
2022/02/14 08:25:34;;;;;;;36.38;19.15;;;;;;;;;;6316905;28;19920;-75
2022/02/14 08:28:38;;;;;;;40.35;19.60;;;;;;;;;;6319411;28;20433;-76
2022/02/14 08:31:43;;;;;;;37.38;20.23;;;;;;;;;;6317030;28;20043;-75
2022/02/14 08:34:48;;;;;;;39.65;19.15;;;;;;;;;;6316587;28;20461;-76
2022/02/14 08:37:53;;;;;;;57.10;30.55;;;;;;;;;;6315503;28;20040;-76
2022/02/14 08:40:57;;;;;;;38.17;19.77;;;;;;;;;;6315932;28;20044;-73
2022/02/14 08:44:00;;;;;;;39.40;20.75;;;;;;;;;;6317952;28;20043;-73
2022/02/14 08:47:04;;;;;;;42.22;21.95;;;;;;;;;;6317082;28;20044;-76
2022/02/14 08:50:09;;;;;;;43.03;19.65;;;;;;;;;;6316061;28;20632;-76
2022/02/14 08:53:13;;;;;;;39.83;19.98;;;;;;;;;;6315635;28;20048;-76
2022/02/14 08:56:18;;;;;;;43.75;20.38;;;;;;;;;;6315917;28;20436;-76
2022/02/14 08:59:24;;;;;;;41.92;21.95;;;;;;;;;;6318389;28;20086;-76
2022/02/14 09:02:27;;;;;;;36.75;19.55;;;;;;;;;;6299436;28;20067;-77
2022/02/14 09:05:33;;;;;;;43.13;20.65;;;;;;;;;;6315967;28;20047;-75
2022/02/14 09:08:36;;;;;;;;;;;;;;;;;;6317258;28;20188;-76
2022/02/14 09:11:41;;;;;;;37.67;20.05;;;;;;;;;;6316314;28;19930;-74
2022/02/14 09:14:44;;;;;;;36.72;21.00;;;;;;;;;;6317002;28;20040;-74
2022/02/14 09:17:50;;;;;;;37.35;20.55;;;;;;;;;;6316023;28;20048;-73
2022/02/14 09:20:56;;;;;;;36.58;20.25;;;;;;;;;;6317478;28;20051;-73
2022/02/14 09:24:00;;;;;;;41.00;22.30;;;;;;;;;;6316337;28;20054;-75
2022/02/14 09:27:04;;;;;;;38.40;20.45;;;;;;;;;;6315700;28;20420;-74
2022/02/14 09:30:07;;;;;;;40.90;21.45;;;;;;;;;;6314407;28;20051;-73
2022/02/14 09:33:10;;;;;;;38.78;21.80;;;;;;;;;;6314667;28;20498;-73
2022/02/14 09:36:16;;;;;;;39.80;21.40;;;;;;;;;;6315109;28;20055;-73
2022/02/14 09:39:21;;;;;;;38.65;21.45;;;;;;;;;;6313225;28;20174;-73
2022/02/14 09:42:25;;;;;;;39.22;21.10;;;;;;;;;;6312017;28;20062;-73
2022/02/14 09:45:29;;;;;;;41.42;21.58;;;;;;;;;;6313077;28;20067;-73
2022/02/14 09:48:35;;;;;;;42.95;23.17;;;;;;;;;;6313683;28;20056;-73
2022/02/14 09:51:39;;;;;;;43.25;21.15;;;;;;;;;;6313889;28;20455;-73
2022/02/14 09:54:42;;;;;;;38.55;21.67;;;;;;;;;;6313889;28;20051;-73
2022/02/14 09:57:48;;;;;;;42.30;22.55;;;;;;;;;;6316790;28;20500;-73
2022/02/14 10:00:52;;;;;;;39.75;22.52;;;;;;;;;;6316835;28;20044;-73
2022/02/14 10:03:55;;;;;;;38.92;21.58;;;;;;;;;;6315584;28;20044;-73
2022/02/14 10:07:10;;;;;;;40.53;22.83;;;;;;;;;;6315824;28;20040;-73
2022/02/14 10:10:17;;;;;;;38.20;21.27;;;;;;;;;;6314776;28;20482;-73
2022/02/14 10:13:33;;;;;;;40.10;23.13;;;;;;;;;;6315803;28;20498;-73
2022/02/14 10:16:36;;;;;;;39.92;21.63;;;;;;;;;;6316592;28;20487;-73
2022/02/14 10:19:45;;;;;;;37.42;21.95;;;;;;;;;;6316389;28;20498;-73
2022/02/14 10:22:55;;;;;;;46.33;22.15;;;;;;;;;;6316076;28;20048;-73
2022/02/14 10:25:59;;;;;;;39.58;21.35;;;;;;;;;;6317026;28;20378;-73
2022/02/14 10:29:09;;;;;;;44.08;22.58;;;;;;;;;;6316613;28;20043;-73
2022/02/14 10:32:16;;;;;;;41.60;23.33;;;;;;;;;;6315958;28;20067;-73
2022/02/14 10:35:18;;;;;;;;;;;;;;;;;;6315928;28;20636;-72
2022/02/14 10:38:23;;;;;;;39.08;20.58;;;;;;;;;;6314963;28;19920;-74
2022/02/14 10:41:27;;;;;;;35.10;21.77;;;;;;;;;;6314937;28;20492;-72
2022/02/14 10:47:52;;;;;;;37.08;20.80;;;;;;;;;;6316624;28;20173;-73
2022/02/14 10:50:58;;;;;;;36.30;21.00;;;;;;;;;;6315304;28;20058;-72
2022/02/14 10:54:04;;;;;;;36.10;21.45;;;;;;;;;;6318391;28;20471;-73
2022/02/14 10:57:08;;;;;;;36.05;21.15;;;;;;;;;;6319819;28;20062;-73
2022/02/14 11:00:12;;;;;;;34.55;20.70;;;;;;;;;;6321029;28;20181;-73
2022/02/14 11:03:15;;;;;;;42.75;22.00;;;;;;;;;;6320899;28;20066;-71
2022/02/14 11:06:18;;;;;;;36.05;20.40;;;;;;;;;;6319203;28;20071;-72
2022/02/14 11:09:27;;;;;;;34.03;21.40;;;;;;;;;;6319837;28;20048;-72
2022/02/14 11:12:35;;;;;;;36.45;21.83;;;;;;;;;;6319641;28;20127;-72
2022/02/14 11:15:40;;;;;;;34.17;20.45;;;;;;;;;;6318968;28;20044;-74
2022/02/14 11:18:48;;;;;;;33.85;20.35;;;;;;;;;;6319729;28;20047;-72
2022/02/14 11:21:51;;;;;;;35.05;20.38;;;;;;;;;;6318911;28;20394;-74
2022/02/14 11:24:58;;;;;;;32.13;20.50;;;;;;;;;;6320607;28;20108;-73
2022/02/14 11:28:10;;;;;;;33.20;19.80;;;;;;;;;;6319972;28;20044;-73
2022/02/14 11:31:14;;;;;;;33.75;20.48;;;;;;;;;;6320589;28;20036;-73
2022/02/14 11:34:18;;;;;;;31.47;20.17;;;;;;;;;;6318657;28;20057;-73
2022/02/14 11:37:24;;;;;;;32.13;19.67;;;;;;;;;;6318230;28;20117;-72
2022/02/14 11:40:48;;;;;;;34.20;19.83;;;;;;;;;;6320301;28;20152;-72
2022/02/14 11:43:51;;;;;;;37.83;21.17;;;;;;;;;;6319917;28;20070;-75
2022/02/14 11:47:14;;;;;;;34.67;21.25;;;;;;;;;;6318793;28;20069;-72
2022/02/14 11:50:32;;;;;;;36.65;20.77;;;;;;;;;;6318054;28;20139;-72
2022/02/14 11:53:41;;;;;;;32.20;19.52;;;;;;;;;;6301939;28;20056;-72
2022/02/14 11:56:55;;;;;;;31.95;19.88;;;;;;;;;;6318229;28;20044;-73
2022/02/14 12:00:23;;;;;;;37.38;21.38;;;;;;;;;;6319707;28;20097;-73
2022/02/14 12:03:27;;;;;;;34.72;20.35;;;;;;;;;;6317689;28;20093;-72
2022/02/14 12:06:30;;;;;;;37.10;20.90;;;;;;;;;;6317248;28;20048;-73
2022/02/14 12:10:00;;;;;;;30.60;19.55;;;;;;;;;;6317981;28;20044;-72
2022/02/14 12:13:09;;;;;;;35.20;19.55;;;;;;;;;;6319143;28;20040;-74
2022/02/14 12:23:15;;;;;;;32.00;20.00;;;;;;;;;;6319231;28;20052;-72
2022/02/14 12:26:20;;;;;;;34.03;19.92;;;;;;;;;;6317667;28;20048;-72
2022/02/14 12:29:40;;;;;;;31.55;19.52;;;;;;;;;;6318558;28;20046;-74
2022/02/14 12:32:48;;;;;;;34.53;20.63;;;;;;;;;;6317771;28;20055;-72
2022/02/14 12:35:51;;;;;;;36.78;21.02;;;;;;;;;;6317397;28;20127;-73
2022/02/14 12:38:57;;;;;;;37.35;19.80;;;;;;;;;;6318960;28;20051;-72
2022/02/14 12:42:19;;;;;;;31.13;18.17;;;;;;;;;;6316945;28;20059;-72
2022/02/14 12:45:27;;;;;;;30.52;17.73;;;;;;;;;;6317559;28;20402;-73
2022/02/14 12:48:31;;;;;;;29.58;16.63;;;;;;;;;;6316794;28;20051;-73
2022/02/14 12:51:34;;;;;;;24.70;16.02;;;;;;;;;;6316926;28;20070;-73
2022/02/14 12:54:38;;;;;;;25.58;16.25;;;;;;;;;;6316801;28;20051;-73
2022/02/14 12:57:42;;;;;;;29.92;17.05;;;;;;;;;;6318178;28;20051;-72
2022/02/14 13:00:50;;;;;;;25.60;15.32;;;;;;;;;;6316823;28;20044;-74
2022/02/14 13:03:54;;;;;;;26.77;16.90;;;;;;;;;;6316243;28;20126;-73
2022/02/14 13:06:58;;;;;;;29.33;16.23;;;;;;;;;;6316646;28;20036;-74
2022/02/14 13:10:04;;;;;;;27.05;16.33;;;;;;;;;;6300069;28;20093;-74
2022/02/14 13:13:28;;;;;;;26.52;15.32;;;;;;;;;;6317582;28;20047;-72
2022/02/14 13:16:34;;;;;;;24.50;15.65;;;;;;;;;;6317437;28;20051;-73
2022/02/14 13:19:37;;;;;;;26.73;15.88;;;;;;;;;;6316609;28;20475;-72
2022/02/14 13:22:41;;;;;;;26.92;15.43;;;;;;;;;;6316291;28;20520;-72
2022/02/14 13:26:02;;;;;;;27.52;15.40;;;;;;;;;;6317139;28;20428;-73
2022/02/14 13:29:08;;;;;;;27.55;15.98;;;;;;;;;;6316553;28;20048;-73
2022/02/14 13:32:14;;;;;;;25.85;15.95;;;;;;;;;;6317349;28;20494;-72
2022/02/14 13:35:19;;;;;;;24.48;15.18;;;;;;;;;;6317525;28;20048;-72
2022/02/14 13:38:32;;;;;;;27.52;15.18;;;;;;;;;;6316166;28;20067;-72
2022/02/14 13:41:38;;;;;;;26.90;14.63;;;;;;;;;;6317924;28;20110;-74
2022/02/14 13:44:44;;;;;;;21.95;14.73;;;;;;;;;;6315910;28;20050;-72
2022/02/14 13:47:49;;;;;;;25.10;14.43;;;;;;;;;;6316596;28;20047;-72
2022/02/14 13:50:55;;;;;;;28.65;15.18;;;;;;;;;;6315963;28;20052;-73
2022/02/14 13:54:10;;;;;;;26.90;14.52;;;;;;;;;;6317005;28;20517;-73
2022/02/14 13:57:23;;;;;;;26.08;15.57;;;;;;;;;;6316931;28;20044;-73
2022/02/14 14:00:34;;;;;;;25.85;14.10;;;;;;;;;;6315221;28;20040;-72
2022/02/14 14:03:39;;;;;;;23.80;14.73;;;;;;;;;;6317002;28;20109;-72
2022/02/14 14:06:42;;;;;;;26.50;15.25;;;;;;;;;;6316711;28;20059;-72
2022/02/14 14:09:49;;;;;;;25.67;15.20;;;;;;;;;;6315347;28;20127;-73
2022/02/14 14:12:54;;;;;;;25.33;14.32;;;;;;;;;;6316507;28;20055;-73
2022/02/14 14:15:57;;;;;;;25.77;14.13;;;;;;;;;;6316504;28;20449;-72
2022/02/14 14:19:04;;;;;;;25.90;13.73;;;;;;;;;;6315321;28;20040;-73
2022/02/14 14:22:07;;;;;;;23.23;13.85;;;;;;;;;;6316296;28;20584;-73
2022/02/14 14:25:10;;;;;;;22.40;13.15;;;;;;;;;;6315344;28;20040;-73
2022/02/14 14:28:13;;;;;;;25.45;14.35;;;;;;;;;;6317588;28;20050;-73
2022/02/14 14:31:17;;;;;;;24.63;13.32;;;;;;;;;;6321512;28;20539;-72
2022/02/14 14:34:27;;;;;;;24.05;14.70;;;;;;;;;;6321744;28;20048;-72
2022/02/14 14:37:30;;;;;;;25.33;14.67;;;;;;;;;;6320099;28;20048;-72
2022/02/14 14:40:36;;;;;;;24.50;14.25;;;;;;;;;;6321560;28;20044;-72
2022/02/14 14:43:42;;;;;;;26.25;14.20;;;;;;;;;;6321091;28;20044;-73
2022/02/14 14:46:46;;;;;;;23.67;13.70;;;;;;;;;;6322363;28;20051;-72
2022/02/14 14:49:51;;;;;;;23.48;13.77;;;;;;;;;;6319886;28;20047;-72
2022/02/14 14:52:53;;;;;;;25.05;14.23;;;;;;;;;;6319613;28;20376;-73
2022/02/14 14:55:57;;;;;;;27.58;13.65;;;;;;;;;;6319910;28;20044;-72
2022/02/14 14:59:05;;;;;;;;;;;;;;;;;;6320384;28;20425;-72
2022/02/14 15:02:11;;;;;;;23.63;13.30;;;;;;;;;;6320007;28;20290;-73
2022/02/14 15:05:15;;;;;;;24.67;14.27;;;;;;;;;;6320651;28;20064;-73
2022/02/14 15:08:20;;;;;;;25.08;14.57;;;;;;;;;;6319875;28;20500;-73
2022/02/14 15:11:23;;;;;;;27.33;14.63;;;;;;;;;;6320857;28;20151;-73
2022/02/14 15:14:29;;;;;;;23.85;14.02;;;;;;;;;;6319110;28;20051;-73
2022/02/14 15:17:32;;;;;;;29.23;14.33;;;;;;;;;;6321039;28;20527;-73
2022/02/14 15:20:37;;;;;;;25.63;14.15;;;;;;;;;;6320634;28;20048;-72
2022/02/14 15:23:41;;;;;;;26.15;13.88;;;;;;;;;;6319336;28;20064;-72
2022/02/14 15:26:48;;;;;;;25.67;14.77;;;;;;;;;;6318815;28;20059;-73
2022/02/14 15:29:53;;;;;;;26.83;15.02;;;;;;;;;;6319220;28;20060;-73
2022/02/14 15:32:56;;;;;;;24.55;14.85;;;;;;;;;;6319136;28;20044;-72
2022/02/14 15:36:01;;;;;;;25.92;14.65;;;;;;;;;;6318646;28;20054;-73
2022/02/14 15:39:04;;;;;;;26.35;15.48;;;;;;;;;;6320693;28;20051;-73
2022/02/14 15:42:09;;;;;;;31.38;15.68;;;;;;;;;;6318992;28;20051;-73
2022/02/14 15:45:12;;;;;;;23.25;14.65;;;;;;;;;;6318437;28;20054;-73
2022/02/14 15:48:15;;;;;;;24.27;14.77;;;;;;;;;;6319814;28;20322;-73
2022/02/14 15:51:20;;;;;;;22.25;14.70;;;;;;;;;;6318474;28;20044;-73
2022/02/14 15:54:25;;;;;;;25.40;14.48;;;;;;;;;;6318729;28;20050;-73
2022/02/14 15:57:28;;;;;;;31.25;15.05;;;;;;;;;;6318005;28;20051;-72
2022/02/14 16:00:33;;;;;;;;;;;;;;;;;;6319113;28;20044;-73
2022/02/14 16:03:37;;;;;;;25.77;14.25;;;;;;;;;;6319506;28;19920;-73
2022/02/14 16:06:43;;;;;;;26.80;14.95;;;;;;;;;;6319252;28;20118;-72
2022/02/14 16:09:46;;;;;;;25.33;14.75;;;;;;;;;;6319235;28;20047;-73
2022/02/14 16:12:51;;;;;;;28.05;16.35;;;;;;;;;;6319431;28;20654;-74
2022/02/14 16:15:55;;;;;;;25.48;15.25;;;;;;;;;;6318233;28;20052;-73
2022/02/14 16:18:58;;;;;;;26.17;15.07;;;;;;;;;;6317755;28;20040;-73
2022/02/14 16:22:04;;;;;;;25.20;14.80;;;;;;;;;;6317927;28;20469;-74
2022/02/14 16:25:08;;;;;;;24.67;14.82;;;;;;;;;;6317830;28;20520;-73
2022/02/14 16:28:13;;;;;;;24.20;13.27;;;;;;;;;;6317402;28;20051;-74
2022/02/14 16:31:16;;;;;;;32.05;16.73;;;;;;;;;;6317846;28;20127;-73
2022/02/14 16:34:20;;;;;;;32.53;14.15;;;;;;;;;;6318886;28;20040;-73
2022/02/14 16:37:26;;;;;;;25.80;14.13;;;;;;;;;;6317636;28;20079;-73
2022/02/14 16:40:30;;;;;;;25.05;14.75;;;;;;;;;;6319107;28;20093;-72
2022/02/14 16:43:35;;;;;;;21.50;13.60;;;;;;;;;;6317403;28;20052;-72
2022/02/14 16:46:39;;;;;;;23.08;14.00;;;;;;;;;;6317507;28;20048;-72
2022/02/14 16:49:59;;;;;;;24.67;14.40;;;;;;;;;;6318100;28;20078;-74
2022/02/14 16:53:07;;;;;;;26.95;15.23;;;;;;;;;;6318025;28;20394;-73
2022/02/14 16:56:13;;;;;;;26.73;15.02;;;;;;;;;;6318285;28;20098;-73
2022/02/14 16:59:17;;;;;;;28.27;14.95;;;;;;;;;;6318947;28;20048;-72
2022/02/14 17:02:20;;;;;;;24.25;14.25;;;;;;;;;;6317765;28;20050;-72
2022/02/14 17:05:24;;;;;;;27.70;16.45;;;;;;;;;;6318231;28;20054;-73
2022/02/14 17:08:28;;;;;;;32.22;16.33;;;;;;;;;;6318143;28;20090;-72
2022/02/14 17:11:35;;;;;;;26.83;15.35;;;;;;;;;;6316289;28;20044;-73
2022/02/14 17:14:38;;;;;;;28.45;16.27;;;;;;;;;;6318125;28;20052;-73
2022/02/14 17:17:42;;;;;;;33.15;17.50;;;;;;;;;;6316345;28;20063;-72
2022/02/14 17:20:45;;;;;;;29.23;16.80;;;;;;;;;;6317783;28;20430;-72
2022/02/14 17:23:50;;;;;;;31.98;16.48;;;;;;;;;;6316220;28;20123;-72
2022/02/14 17:26:56;;;;;;;27.60;15.15;;;;;;;;;;6317435;28;20054;-73
2022/02/14 17:30:02;;;;;;;;;;;;;;;;;;6316876;28;20369;-72
2022/02/14 17:33:07;;;;;;;29.80;16.50;;;;;;;;;;6317405;28;19920;-73
2022/02/14 17:36:11;;;;;;;28.77;17.20;;;;;;;;;;6316132;28;20498;-72
2022/02/14 17:39:17;;;;;;;25.42;16.00;;;;;;;;;;6316389;28;20513;-73
2022/02/14 17:42:22;;;;;;;30.30;16.40;;;;;;;;;;6317287;28;20097;-72
2022/02/14 17:45:26;;;;;;;26.55;15.55;;;;;;;;;;6317118;28;20186;-73
2022/02/14 17:48:31;;;;;;;28.63;16.77;;;;;;;;;;6315748;28;20056;-72
2022/02/14 17:51:36;;;;;;;27.73;15.70;;;;;;;;;;6316089;28;20120;-73
2022/02/14 17:54:46;;;;;;;29.88;17.40;;;;;;;;;;6316545;28;20225;-73
2022/02/14 17:57:49;;;;;;;34.25;17.35;;;;;;;;;;6315781;28;20560;-73
2022/02/14 18:00:55;;;;;;;;;;;;;;;;;;6317432;28;20127;-73
2022/02/14 18:04:03;;;;;;;24.70;15.02;;;;;;;;;;6315686;28;19974;-73
2022/02/14 18:07:08;;;;;;;34.63;17.40;;;;;;;;;;6316796;28;20032;-73
2022/02/14 18:10:14;;;;;;;29.45;16.13;;;;;;;;;;6316828;28;20453;-72
2022/02/14 18:13:19;;;;;;;25.35;15.10;;;;;;;;;;6315578;28;20105;-73